sensor_id;sensor_type;location;lat;lon;timestamp;temperature;humidity
65038;DHT22;51605;47.040;15.294;2023-10-19T00:00:14;22.90;49.20
65038;DHT22;51605;47.040;15.294;2023-10-19T00:02:50;22.90;49.30
65038;DHT22;51605;47.040;15.294;2023-10-19T00:05:20;22.90;49.30
65038;DHT22;51605;47.040;15.294;2023-10-19T00:07:46;22.90;49.30
65038;DHT22;51605;47.040;15.294;2023-10-19T00:10:12;22.90;49.30
65038;DHT22;51605;47.040;15.294;2023-10-19T00:12:41;22.90;49.30
65038;DHT22;51605;47.040;15.294;2023-10-19T00:15:09;22.90;49.30
65038;DHT22;51605;47.040;15.294;2023-10-19T00:17:36;22.90;49.30
65038;DHT22;51605;47.040;15.294;2023-10-19T00:20:05;22.90;49.30
65038;DHT22;51605;47.040;15.294;2023-10-19T00:22:50;22.90;49.30
65038;DHT22;51605;47.040;15.294;2023-10-19T00:25:18;22.90;49.30
65038;DHT22;51605;47.040;15.294;2023-10-19T00:27:43;22.90;49.30
65038;DHT22;51605;47.040;15.294;2023-10-19T00:30:11;22.90;49.30
65038;DHT22;51605;47.040;15.294;2023-10-19T00:32:37;22.90;49.20
65038;DHT22;51605;47.040;15.294;2023-10-19T00:35:05;22.90;49.20
65038;DHT22;51605;47.040;15.294;2023-10-19T00:37:46;22.90;49.20
65038;DHT22;51605;47.040;15.294;2023-10-19T00:40:13;22.90;49.20
65038;DHT22;51605;47.040;15.294;2023-10-19T00:43:02;22.90;49.20
65038;DHT22;51605;47.040;15.294;2023-10-19T00:45:28;22.90;49.20
65038;DHT22;51605;47.040;15.294;2023-10-19T00:47:57;22.90;49.20
65038;DHT22;51605;47.040;15.294;2023-10-19T00:50:23;22.90;49.30
65038;DHT22;51605;47.040;15.294;2023-10-19T00:52:52;22.90;49.20
65038;DHT22;51605;47.040;15.294;2023-10-19T00:55:18;22.90;49.30
65038;DHT22;51605;47.040;15.294;2023-10-19T00:57:45;22.90;49.30
65038;DHT22;51605;47.040;15.294;2023-10-19T01:00:14;22.90;49.20
65038;DHT22;51605;47.040;15.294;2023-10-19T01:03:00;22.90;49.20
65038;DHT22;51605;47.040;15.294;2023-10-19T01:05:26;22.90;49.30
65038;DHT22;51605;47.040;15.294;2023-10-19T01:07:58;22.90;49.30
65038;DHT22;51605;47.040;15.294;2023-10-19T01:10:28;22.90;49.30
65038;DHT22;51605;47.040;15.294;2023-10-19T01:12:53;22.90;49.30
65038;DHT22;51605;47.040;15.294;2023-10-19T01:15:21;22.90;49.30
65038;DHT22;51605;47.040;15.294;2023-10-19T01:17:54;22.90;49.30
65038;DHT22;51605;47.040;15.294;2023-10-19T01:20:28;22.90;49.30
65038;DHT22;51605;47.040;15.294;2023-10-19T01:23:02;22.90;49.40
65038;DHT22;51605;47.040;15.294;2023-10-19T01:28:16;22.90;49.30
65038;DHT22;51605;47.040;15.294;2023-10-19T01:30:43;22.90;49.30
65038;DHT22;51605;47.040;15.294;2023-10-19T01:33:10;22.90;49.30
65038;DHT22;51605;47.040;15.294;2023-10-19T01:35:39;22.90;49.30
65038;DHT22;51605;47.040;15.294;2023-10-19T01:38:24;22.90;49.30
65038;DHT22;51605;47.040;15.294;2023-10-19T01:40:50;22.90;49.30
65038;DHT22;51605;47.040;15.294;2023-10-19T01:43:17;22.90;49.30
65038;DHT22;51605;47.040;15.294;2023-10-19T01:45:47;22.90;49.30
65038;DHT22;51605;47.040;15.294;2023-10-19T01:48:13;22.90;49.30
65038;DHT22;51605;47.040;15.294;2023-10-19T01:50:40;22.90;49.30
65038;DHT22;51605;47.040;15.294;2023-10-19T01:53:07;22.90;49.80
65038;DHT22;51605;47.040;15.294;2023-10-19T01:55:42;22.90;49.40
65038;DHT22;51605;47.040;15.294;2023-10-19T01:58:09;22.90;49.40
65038;DHT22;51605;47.040;15.294;2023-10-19T02:00:35;22.90;49.50
65038;DHT22;51605;47.040;15.294;2023-10-19T02:03:08;22.90;49.50
65038;DHT22;51605;47.040;15.294;2023-10-19T02:05:34;22.90;49.50
65038;DHT22;51605;47.040;15.294;2023-10-19T02:08:08;22.90;49.30
65038;DHT22;51605;47.040;15.294;2023-10-19T02:10:34;22.90;49.30
65038;DHT22;51605;47.040;15.294;2023-10-19T02:13:01;22.90;49.30
65038;DHT22;51605;47.040;15.294;2023-10-19T02:15:33;22.90;49.30
65038;DHT22;51605;47.040;15.294;2023-10-19T02:18:01;22.90;49.40
65038;DHT22;51605;47.040;15.294;2023-10-19T02:20:28;22.90;49.40
65038;DHT22;51605;47.040;15.294;2023-10-19T02:22:55;22.90;49.40
65038;DHT22;51605;47.040;15.294;2023-10-19T02:25:25;22.90;49.40
65038;DHT22;51605;47.040;15.294;2023-10-19T02:27:54;22.90;49.50
65038;DHT22;51605;47.040;15.294;2023-10-19T02:30:19;22.90;49.40
65038;DHT22;51605;47.040;15.294;2023-10-19T02:32:45;22.90;49.50
65038;DHT22;51605;47.040;15.294;2023-10-19T02:35:13;22.80;49.50
65038;DHT22;51605;47.040;15.294;2023-10-19T02:37:40;22.90;49.60
65038;DHT22;51605;47.040;15.294;2023-10-19T02:40:06;22.90;50.50
65038;DHT22;51605;47.040;15.294;2023-10-19T02:42:38;22.90;49.40
65038;DHT22;51605;47.040;15.294;2023-10-19T02:45:04;22.90;49.40
65038;DHT22;51605;47.040;15.294;2023-10-19T02:47:30;22.90;49.40
65038;DHT22;51605;47.040;15.294;2023-10-19T02:49:56;22.90;49.50
65038;DHT22;51605;47.040;15.294;2023-10-19T02:52:23;22.90;49.60
65038;DHT22;51605;47.040;15.294;2023-10-19T02:54:48;22.90;49.60
65038;DHT22;51605;47.040;15.294;2023-10-19T02:57:14;22.90;49.50
65038;DHT22;51605;47.040;15.294;2023-10-19T02:59:40;22.90;49.50
65038;DHT22;51605;47.040;15.294;2023-10-19T03:02:05;22.90;49.60
65038;DHT22;51605;47.040;15.294;2023-10-19T03:04:37;22.90;49.60
65038;DHT22;51605;47.040;15.294;2023-10-19T03:07:06;22.90;49.60
65038;DHT22;51605;47.040;15.294;2023-10-19T03:09:41;22.90;49.60
65038;DHT22;51605;47.040;15.294;2023-10-19T03:12:20;22.90;49.60
65038;DHT22;51605;47.040;15.294;2023-10-19T03:14:46;22.90;49.60
65038;DHT22;51605;47.040;15.294;2023-10-19T03:17:13;22.90;49.60
65038;DHT22;51605;47.040;15.294;2023-10-19T03:19:39;22.90;49.60
65038;DHT22;51605;47.040;15.294;2023-10-19T03:22:05;22.90;49.60
65038;DHT22;51605;47.040;15.294;2023-10-19T03:24:34;22.90;49.60
65038;DHT22;51605;47.040;15.294;2023-10-19T03:27:04;22.90;49.60
65038;DHT22;51605;47.040;15.294;2023-10-19T03:29:45;22.90;49.70
65038;DHT22;51605;47.040;15.294;2023-10-19T03:32:12;22.90;49.70
65038;DHT22;51605;47.040;15.294;2023-10-19T03:34:38;22.90;49.90
65038;DHT22;51605;47.040;15.294;2023-10-19T03:37:04;22.90;49.80
65038;DHT22;51605;47.040;15.294;2023-10-19T03:39:41;22.90;49.70
65038;DHT22;51605;47.040;15.294;2023-10-19T03:42:06;22.90;49.70
65038;DHT22;51605;47.040;15.294;2023-10-19T03:44:33;22.90;49.70
65038;DHT22;51605;47.040;15.294;2023-10-19T03:47:14;22.90;49.70
65038;DHT22;51605;47.040;15.294;2023-10-19T03:49:44;22.80;49.70
65038;DHT22;51605;47.040;15.294;2023-10-19T03:52:10;22.80;49.80
65038;DHT22;51605;47.040;15.294;2023-10-19T03:54:36;22.80;49.80
65038;DHT22;51605;47.040;15.294;2023-10-19T03:57:11;22.80;49.90
65038;DHT22;51605;47.040;15.294;2023-10-19T03:59:41;22.80;50.00
65038;DHT22;51605;47.040;15.294;2023-10-19T04:02:10;22.80;50.00
65038;DHT22;51605;47.040;15.294;2023-10-19T04:04:39;22.80;50.00
65038;DHT22;51605;47.040;15.294;2023-10-19T04:07:09;22.80;50.00
65038;DHT22;51605;47.040;15.294;2023-10-19T04:09:56;22.80;50.00
65038;DHT22;51605;47.040;15.294;2023-10-19T04:12:25;22.80;50.10
65038;DHT22;51605;47.040;15.294;2023-10-19T04:14:50;22.80;50.10
65038;DHT22;51605;47.040;15.294;2023-10-19T04:17:16;22.80;50.00
65038;DHT22;51605;47.040;15.294;2023-10-19T04:19:47;22.80;50.00
65038;DHT22;51605;47.040;15.294;2023-10-19T04:22:14;22.80;49.80
65038;DHT22;51605;47.040;15.294;2023-10-19T04:24:51;22.80;49.90
65038;DHT22;51605;47.040;15.294;2023-10-19T04:27:16;22.80;49.90
65038;DHT22;51605;47.040;15.294;2023-10-19T04:29:42;22.80;49.90
65038;DHT22;51605;47.040;15.294;2023-10-19T04:32:10;22.80;49.90
65038;DHT22;51605;47.040;15.294;2023-10-19T04:34:37;22.80;50.00
65038;DHT22;51605;47.040;15.294;2023-10-19T04:37:02;22.80;50.00
65038;DHT22;51605;47.040;15.294;2023-10-19T04:39:32;22.80;50.00
65038;DHT22;51605;47.040;15.294;2023-10-19T04:42:00;22.80;50.10
65038;DHT22;51605;47.040;15.294;2023-10-19T04:44:25;22.80;50.10
65038;DHT22;51605;47.040;15.294;2023-10-19T04:46:51;22.80;50.20
65038;DHT22;51605;47.040;15.294;2023-10-19T04:49:16;22.80;50.10
65038;DHT22;51605;47.040;15.294;2023-10-19T04:51:42;22.80;50.00
65038;DHT22;51605;47.040;15.294;2023-10-19T04:54:09;22.80;50.00
65038;DHT22;51605;47.040;15.294;2023-10-19T04:56:36;22.80;50.10
65038;DHT22;51605;47.040;15.294;2023-10-19T04:59:02;22.80;50.00
65038;DHT22;51605;47.040;15.294;2023-10-19T05:01:28;22.80;50.00
65038;DHT22;51605;47.040;15.294;2023-10-19T05:03:54;22.80;50.00
65038;DHT22;51605;47.040;15.294;2023-10-19T05:06:19;22.80;49.90
65038;DHT22;51605;47.040;15.294;2023-10-19T05:08:46;22.80;50.00
65038;DHT22;51605;47.040;15.294;2023-10-19T05:11:12;22.80;50.00
65038;DHT22;51605;47.040;15.294;2023-10-19T05:13:38;22.80;50.00
65038;DHT22;51605;47.040;15.294;2023-10-19T05:16:05;22.80;50.10
65038;DHT22;51605;47.040;15.294;2023-10-19T05:18:31;22.70;51.10
65038;DHT22;51605;47.040;15.294;2023-10-19T05:20:56;22.70;50.10
65038;DHT22;51605;47.040;15.294;2023-10-19T05:23:26;22.70;50.20
65038;DHT22;51605;47.040;15.294;2023-10-19T05:25:59;22.70;50.10
65038;DHT22;51605;47.040;15.294;2023-10-19T05:28:25;22.70;50.10
65038;DHT22;51605;47.040;15.294;2023-10-19T05:30:51;22.70;50.10
65038;DHT22;51605;47.040;15.294;2023-10-19T05:33:17;22.70;50.20
65038;DHT22;51605;47.040;15.294;2023-10-19T05:35:47;22.70;50.10
65038;DHT22;51605;47.040;15.294;2023-10-19T05:38:12;22.70;50.10
65038;DHT22;51605;47.040;15.294;2023-10-19T05:40:38;22.70;50.10
65038;DHT22;51605;47.040;15.294;2023-10-19T05:43:04;22.70;50.20
65038;DHT22;51605;47.040;15.294;2023-10-19T05:45:30;22.70;50.10
65038;DHT22;51605;47.040;15.294;2023-10-19T05:47:56;22.70;50.10
65038;DHT22;51605;47.040;15.294;2023-10-19T05:50:25;22.70;50.10
65038;DHT22;51605;47.040;15.294;2023-10-19T05:52:51;22.80;50.30
65038;DHT22;51605;47.040;15.294;2023-10-19T05:55:17;22.80;50.30
65038;DHT22;51605;47.040;15.294;2023-10-19T05:57:43;22.80;50.20
65038;DHT22;51605;47.040;15.294;2023-10-19T06:00:11;22.80;50.20
65038;DHT22;51605;47.040;15.294;2023-10-19T06:02:48;22.80;50.20
65038;DHT22;51605;47.040;15.294;2023-10-19T06:05:18;22.80;50.20
65038;DHT22;51605;47.040;15.294;2023-10-19T06:07:48;22.80;50.20
65038;DHT22;51605;47.040;15.294;2023-10-19T06:10:18;22.70;50.10
65038;DHT22;51605;47.040;15.294;2023-10-19T06:12:47;22.70;50.00
65038;DHT22;51605;47.040;15.294;2023-10-19T06:15:14;22.80;50.10
65038;DHT22;51605;47.040;15.294;2023-10-19T06:17:41;22.80;49.80
65038;DHT22;51605;47.040;15.294;2023-10-19T06:20:08;22.70;49.60
65038;DHT22;51605;47.040;15.294;2023-10-19T06:22:46;22.70;49.60
65038;DHT22;51605;47.040;15.294;2023-10-19T06:25:22;22.70;49.60
65038;DHT22;51605;47.040;15.294;2023-10-19T06:27:49;22.70;50.60
65038;DHT22;51605;47.040;15.294;2023-10-19T06:30:16;22.70;49.70
65038;DHT22;51605;47.040;15.294;2023-10-19T06:32:49;22.70;49.70
65038;DHT22;51605;47.040;15.294;2023-10-19T06:35:16;22.70;49.70
65038;DHT22;51605;47.040;15.294;2023-10-19T06:37:42;22.70;49.70
65038;DHT22;51605;47.040;15.294;2023-10-19T06:40:09;22.70;49.70
65038;DHT22;51605;47.040;15.294;2023-10-19T06:42:37;22.70;49.70
65038;DHT22;51605;47.040;15.294;2023-10-19T06:45:03;22.70;49.80
65038;DHT22;51605;47.040;15.294;2023-10-19T06:47:29;22.70;49.80
65038;DHT22;51605;47.040;15.294;2023-10-19T06:49:55;22.70;49.70
65038;DHT22;51605;47.040;15.294;2023-10-19T06:52:22;22.70;49.60
65038;DHT22;51605;47.040;15.294;2023-10-19T06:54:47;22.70;49.60
65038;DHT22;51605;47.040;15.294;2023-10-19T06:57:13;22.70;49.60
65038;DHT22;51605;47.040;15.294;2023-10-19T06:59:38;22.70;49.50
65038;DHT22;51605;47.040;15.294;2023-10-19T07:02:04;22.70;49.50
65038;DHT22;51605;47.040;15.294;2023-10-19T07:04:33;22.70;49.50
65038;DHT22;51605;47.040;15.294;2023-10-19T07:06:59;22.70;49.50
65038;DHT22;51605;47.040;15.294;2023-10-19T07:09:26;22.70;49.50
65038;DHT22;51605;47.040;15.294;2023-10-19T07:11:51;22.70;49.40
65038;DHT22;51605;47.040;15.294;2023-10-19T07:14:20;22.80;49.40
65038;DHT22;51605;47.040;15.294;2023-10-19T07:16:48;22.70;49.10
65038;DHT22;51605;47.040;15.294;2023-10-19T07:19:15;22.70;49.00
65038;DHT22;51605;47.040;15.294;2023-10-19T07:21:41;22.70;48.90
65038;DHT22;51605;47.040;15.294;2023-10-19T07:24:09;22.70;48.90
65038;DHT22;51605;47.040;15.294;2023-10-19T07:26:36;22.60;48.70
65038;DHT22;51605;47.040;15.294;2023-10-19T07:29:16;22.70;48.70
65038;DHT22;51605;47.040;15.294;2023-10-19T07:31:42;22.70;48.70
65038;DHT22;51605;47.040;15.294;2023-10-19T07:34:08;22.60;48.60
65038;DHT22;51605;47.040;15.294;2023-10-19T07:36:38;22.70;48.70
65038;DHT22;51605;47.040;15.294;2023-10-19T07:39:04;22.60;48.60
65038;DHT22;51605;47.040;15.294;2023-10-19T07:41:30;22.70;48.70
65038;DHT22;51605;47.040;15.294;2023-10-19T07:44:01;22.70;48.70
65038;DHT22;51605;47.040;15.294;2023-10-19T07:46:27;22.70;48.50
65038;DHT22;51605;47.040;15.294;2023-10-19T07:48:54;22.80;48.50
65038;DHT22;51605;47.040;15.294;2023-10-19T07:51:20;22.70;48.50
65038;DHT22;51605;47.040;15.294;2023-10-19T07:53:45;22.80;48.50
65038;DHT22;51605;47.040;15.294;2023-10-19T07:56:11;22.80;48.60
65038;DHT22;51605;47.040;15.294;2023-10-19T07:58:37;22.80;48.50
65038;DHT22;51605;47.040;15.294;2023-10-19T08:01:02;22.80;48.50
65038;DHT22;51605;47.040;15.294;2023-10-19T08:03:28;22.80;48.60
65038;DHT22;51605;47.040;15.294;2023-10-19T08:05:54;22.80;48.60
65038;DHT22;51605;47.040;15.294;2023-10-19T08:08:19;22.70;48.50
65038;DHT22;51605;47.040;15.294;2023-10-19T08:10:45;22.80;48.70
65038;DHT22;51605;47.040;15.294;2023-10-19T08:13:12;22.80;48.60
65038;DHT22;51605;47.040;15.294;2023-10-19T08:15:38;22.80;48.60
65038;DHT22;51605;47.040;15.294;2023-10-19T08:18:04;22.80;48.60
65038;DHT22;51605;47.040;15.294;2023-10-19T08:20:31;22.80;48.60
65038;DHT22;51605;47.040;15.294;2023-10-19T08:22:58;22.80;48.60
65038;DHT22;51605;47.040;15.294;2023-10-19T08:25:24;22.80;48.50
65038;DHT22;51605;47.040;15.294;2023-10-19T08:27:52;22.80;48.50
65038;DHT22;51605;47.040;15.294;2023-10-19T08:30:22;22.80;48.50
65038;DHT22;51605;47.040;15.294;2023-10-19T08:32:48;22.80;48.50
65038;DHT22;51605;47.040;15.294;2023-10-19T08:35:15;22.80;48.40
65038;DHT22;51605;47.040;15.294;2023-10-19T08:37:43;22.80;48.60
65038;DHT22;51605;47.040;15.294;2023-10-19T08:40:12;22.80;48.50
65038;DHT22;51605;47.040;15.294;2023-10-19T08:42:40;22.80;48.60
65038;DHT22;51605;47.040;15.294;2023-10-19T08:45:06;22.80;48.60
65038;DHT22;51605;47.040;15.294;2023-10-19T08:47:37;22.80;48.70
65038;DHT22;51605;47.040;15.294;2023-10-19T08:50:07;22.80;48.60
65038;DHT22;51605;47.040;15.294;2023-10-19T08:52:33;22.80;48.60
65038;DHT22;51605;47.040;15.294;2023-10-19T08:55:00;22.80;48.60
65038;DHT22;51605;47.040;15.294;2023-10-19T08:57:26;22.80;48.60
65038;DHT22;51605;47.040;15.294;2023-10-19T08:59:54;22.90;48.70
65038;DHT22;51605;47.040;15.294;2023-10-19T09:02:23;22.90;48.60
65038;DHT22;51605;47.040;15.294;2023-10-19T09:04:49;22.80;48.60
65038;DHT22;51605;47.040;15.294;2023-10-19T09:07:16;22.90;48.70
65038;DHT22;51605;47.040;15.294;2023-10-19T09:09:42;22.80;48.70
65038;DHT22;51605;47.040;15.294;2023-10-19T09:12:08;22.90;48.60
65038;DHT22;51605;47.040;15.294;2023-10-19T09:14:35;22.90;48.60
65038;DHT22;51605;47.040;15.294;2023-10-19T09:17:09;22.90;48.70
65038;DHT22;51605;47.040;15.294;2023-10-19T09:19:43;22.90;48.60
65038;DHT22;51605;47.040;15.294;2023-10-19T09:22:10;22.90;48.70
65038;DHT22;51605;47.040;15.294;2023-10-19T09:24:47;22.80;48.70
65038;DHT22;51605;47.040;15.294;2023-10-19T09:27:17;22.90;48.70
65038;DHT22;51605;47.040;15.294;2023-10-19T09:29:43;22.80;48.70
65038;DHT22;51605;47.040;15.294;2023-10-19T09:32:09;22.80;48.70
65038;DHT22;51605;47.040;15.294;2023-10-19T09:34:35;22.80;48.70
65038;DHT22;51605;47.040;15.294;2023-10-19T09:37:02;22.90;48.70
65038;DHT22;51605;47.040;15.294;2023-10-19T09:39:31;22.80;48.60
65038;DHT22;51605;47.040;15.294;2023-10-19T09:42:05;22.90;48.80
65038;DHT22;51605;47.040;15.294;2023-10-19T09:44:39;22.90;48.70
65038;DHT22;51605;47.040;15.294;2023-10-19T09:47:11;22.80;48.70
65038;DHT22;51605;47.040;15.294;2023-10-19T09:49:42;22.80;48.80
65038;DHT22;51605;47.040;15.294;2023-10-19T09:52:12;22.90;48.80
65038;DHT22;51605;47.040;15.294;2023-10-19T09:54:54;22.90;48.80
65038;DHT22;51605;47.040;15.294;2023-10-19T09:57:54;22.80;48.80
65038;DHT22;51605;47.040;15.294;2023-10-19T10:00:21;22.80;48.90
65038;DHT22;51605;47.040;15.294;2023-10-19T10:02:50;22.80;48.80
65038;DHT22;51605;47.040;15.294;2023-10-19T10:10:49;22.80;48.90
65038;DHT22;51605;47.040;15.294;2023-10-19T10:15:53;22.80;48.90
65038;DHT22;51605;47.040;15.294;2023-10-19T10:18:20;22.80;48.90
65038;DHT22;51605;47.040;15.294;2023-10-19T10:20:46;22.90;49.00
65038;DHT22;51605;47.040;15.294;2023-10-19T10:25:41;22.80;48.90
65038;DHT22;51605;47.040;15.294;2023-10-19T10:28:14;22.80;48.90
65038;DHT22;51605;47.040;15.294;2023-10-19T10:31:09;22.80;48.90
65038;DHT22;51605;47.040;15.294;2023-10-19T10:36:11;22.80;49.00
65038;DHT22;51605;47.040;15.294;2023-10-19T10:38:37;22.80;49.10
65038;DHT22;51605;47.040;15.294;2023-10-19T10:41:03;22.80;49.10
65038;DHT22;51605;47.040;15.294;2023-10-19T10:43:29;22.80;49.10
65038;DHT22;51605;47.040;15.294;2023-10-19T10:46:05;22.80;49.00
65038;DHT22;51605;47.040;15.294;2023-10-19T10:48:33;22.80;49.10
65038;DHT22;51605;47.040;15.294;2023-10-19T10:50:58;22.80;49.00
65038;DHT22;51605;47.040;15.294;2023-10-19T10:53:24;22.80;49.00
65038;DHT22;51605;47.040;15.294;2023-10-19T10:55:52;22.80;49.10
65038;DHT22;51605;47.040;15.294;2023-10-19T10:58:19;22.80;49.10
65038;DHT22;51605;47.040;15.294;2023-10-19T11:00:46;22.80;49.10
65038;DHT22;51605;47.040;15.294;2023-10-19T11:03:13;22.80;49.10
65038;DHT22;51605;47.040;15.294;2023-10-19T11:05:41;22.80;49.10
65038;DHT22;51605;47.040;15.294;2023-10-19T11:08:14;22.80;49.10
65038;DHT22;51605;47.040;15.294;2023-10-19T11:10:42;22.80;49.10
65038;DHT22;51605;47.040;15.294;2023-10-19T11:13:08;22.80;49.10
65038;DHT22;51605;47.040;15.294;2023-10-19T11:15:35;22.80;49.10
65038;DHT22;51605;47.040;15.294;2023-10-19T11:18:02;22.80;49.10
65038;DHT22;51605;47.040;15.294;2023-10-19T11:20:28;22.80;49.10
65038;DHT22;51605;47.040;15.294;2023-10-19T11:22:55;22.80;49.20
65038;DHT22;51605;47.040;15.294;2023-10-19T11:25:27;22.80;49.20
65038;DHT22;51605;47.040;15.294;2023-10-19T11:27:57;22.80;49.20
65038;DHT22;51605;47.040;15.294;2023-10-19T11:30:27;22.80;49.10
65038;DHT22;51605;47.040;15.294;2023-10-19T11:32:54;22.80;49.20
65038;DHT22;51605;47.040;15.294;2023-10-19T11:35:26;22.80;49.20
65038;DHT22;51605;47.040;15.294;2023-10-19T11:37:54;22.80;49.30
65038;DHT22;51605;47.040;15.294;2023-10-19T11:40:21;22.80;49.30
65038;DHT22;51605;47.040;15.294;2023-10-19T11:42:48;22.80;49.30
65038;DHT22;51605;47.040;15.294;2023-10-19T11:45:14;22.80;49.30
65038;DHT22;51605;47.040;15.294;2023-10-19T11:47:45;22.80;49.30
65038;DHT22;51605;47.040;15.294;2023-10-19T11:50:13;22.80;49.30
65038;DHT22;51605;47.040;15.294;2023-10-19T11:52:42;22.80;49.40
65038;DHT22;51605;47.040;15.294;2023-10-19T11:55:08;22.80;49.40
65038;DHT22;51605;47.040;15.294;2023-10-19T11:57:34;22.80;49.40
65038;DHT22;51605;47.040;15.294;2023-10-19T12:00:04;22.80;49.40
65038;DHT22;51605;47.040;15.294;2023-10-19T12:02:39;22.80;49.60
65038;DHT22;51605;47.040;15.294;2023-10-19T12:05:09;22.80;49.40
65038;DHT22;51605;47.040;15.294;2023-10-19T12:07:39;22.80;49.40
65038;DHT22;51605;47.040;15.294;2023-10-19T12:10:09;22.80;49.40
65038;DHT22;51605;47.040;15.294;2023-10-19T12:12:38;22.80;49.40
65038;DHT22;51605;47.040;15.294;2023-10-19T12:15:05;22.80;49.50
65038;DHT22;51605;47.040;15.294;2023-10-19T12:17:31;22.80;49.40
65038;DHT22;51605;47.040;15.294;2023-10-19T12:19:57;22.80;49.40
65038;DHT22;51605;47.040;15.294;2023-10-19T12:22:23;22.80;49.40
65038;DHT22;51605;47.040;15.294;2023-10-19T12:24:50;22.80;49.40
65038;DHT22;51605;47.040;15.294;2023-10-19T12:27:17;22.80;49.40
65038;DHT22;51605;47.040;15.294;2023-10-19T12:29:43;22.80;49.50
65038;DHT22;51605;47.040;15.294;2023-10-19T12:32:09;22.80;49.50
65038;DHT22;51605;47.040;15.294;2023-10-19T12:34:35;22.80;49.50
65038;DHT22;51605;47.040;15.294;2023-10-19T12:37:00;22.80;49.50
65038;DHT22;51605;47.040;15.294;2023-10-19T12:39:29;22.80;49.50
65038;DHT22;51605;47.040;15.294;2023-10-19T12:42:01;22.80;49.50
65038;DHT22;51605;47.040;15.294;2023-10-19T12:44:26;22.80;49.60
65038;DHT22;51605;47.040;15.294;2023-10-19T12:46:55;22.80;49.60
65038;DHT22;51605;47.040;15.294;2023-10-19T12:49:23;22.70;49.60
65038;DHT22;51605;47.040;15.294;2023-10-19T12:51:51;22.80;49.70
65038;DHT22;51605;47.040;15.294;2023-10-19T12:54:17;22.80;49.60
65038;DHT22;51605;47.040;15.294;2023-10-19T12:56:43;22.70;49.60
65038;DHT22;51605;47.040;15.294;2023-10-19T12:59:09;22.80;49.70
65038;DHT22;51605;47.040;15.294;2023-10-19T13:01:35;22.80;49.70
65038;DHT22;51605;47.040;15.294;2023-10-19T13:04:01;22.80;49.70
65038;DHT22;51605;47.040;15.294;2023-10-19T13:06:39;22.80;49.70
65038;DHT22;51605;47.040;15.294;2023-10-19T13:09:05;22.80;49.70
65038;DHT22;51605;47.040;15.294;2023-10-19T13:11:34;22.70;49.60
65038;DHT22;51605;47.040;15.294;2023-10-19T13:14:00;22.80;49.70
65038;DHT22;51605;47.040;15.294;2023-10-19T13:16:26;22.80;49.70
65038;DHT22;51605;47.040;15.294;2023-10-19T13:18:53;22.80;49.60
65038;DHT22;51605;47.040;15.294;2023-10-19T13:21:19;22.80;49.70
65038;DHT22;51605;47.040;15.294;2023-10-19T13:23:51;22.80;49.70
65038;DHT22;51605;47.040;15.294;2023-10-19T13:26:17;22.80;49.70
65038;DHT22;51605;47.040;15.294;2023-10-19T13:28:46;22.80;49.70
65038;DHT22;51605;47.040;15.294;2023-10-19T13:31:13;22.80;49.70
65038;DHT22;51605;47.040;15.294;2023-10-19T13:33:41;22.80;49.70
65038;DHT22;51605;47.040;15.294;2023-10-19T13:36:09;22.80;49.70
65038;DHT22;51605;47.040;15.294;2023-10-19T13:38:34;22.80;49.80
65038;DHT22;51605;47.040;15.294;2023-10-19T13:41:04;22.80;49.80
65038;DHT22;51605;47.040;15.294;2023-10-19T13:43:33;22.80;49.80
65038;DHT22;51605;47.040;15.294;2023-10-19T13:45:59;22.80;49.80
65038;DHT22;51605;47.040;15.294;2023-10-19T13:48:26;22.80;49.80
65038;DHT22;51605;47.040;15.294;2023-10-19T13:50:53;22.80;49.80
65038;DHT22;51605;47.040;15.294;2023-10-19T13:53:28;22.80;49.70
65038;DHT22;51605;47.040;15.294;2023-10-19T13:55:54;22.80;49.70
65038;DHT22;51605;47.040;15.294;2023-10-19T13:58:19;22.80;49.70
65038;DHT22;51605;47.040;15.294;2023-10-19T14:00:45;22.80;49.70
65038;DHT22;51605;47.040;15.294;2023-10-19T14:03:11;22.80;49.70
65038;DHT22;51605;47.040;15.294;2023-10-19T14:05:43;22.80;49.80
65038;DHT22;51605;47.040;15.294;2023-10-19T14:08:13;22.80;49.80
65038;DHT22;51605;47.040;15.294;2023-10-19T14:10:39;22.80;49.90
65038;DHT22;51605;47.040;15.294;2023-10-19T14:13:10;22.80;49.80
65038;DHT22;51605;47.040;15.294;2023-10-19T14:15:40;22.80;49.90
65038;DHT22;51605;47.040;15.294;2023-10-19T14:18:07;22.80;49.90
65038;DHT22;51605;47.040;15.294;2023-10-19T14:20:34;22.80;50.00
65038;DHT22;51605;47.040;15.294;2023-10-19T14:23:01;22.70;50.10
65038;DHT22;51605;47.040;15.294;2023-10-19T14:25:28;22.80;50.10
65038;DHT22;51605;47.040;15.294;2023-10-19T14:27:55;22.80;50.20
65038;DHT22;51605;47.040;15.294;2023-10-19T14:30:26;22.70;50.10
65038;DHT22;51605;47.040;15.294;2023-10-19T14:32:51;22.70;50.10
65038;DHT22;51605;47.040;15.294;2023-10-19T14:35:19;22.80;50.20
65038;DHT22;51605;47.040;15.294;2023-10-19T14:37:47;22.70;50.10
65038;DHT22;51605;47.040;15.294;2023-10-19T14:40:18;22.80;50.20
65038;DHT22;51605;47.040;15.294;2023-10-19T14:42:46;22.70;50.10
65038;DHT22;51605;47.040;15.294;2023-10-19T14:45:17;22.70;50.10
65038;DHT22;51605;47.040;15.294;2023-10-19T14:47:50;22.80;50.20
65038;DHT22;51605;47.040;15.294;2023-10-19T14:50:20;22.80;50.20
65038;DHT22;51605;47.040;15.294;2023-10-19T14:52:47;22.80;50.20
65038;DHT22;51605;47.040;15.294;2023-10-19T14:55:14;22.80;50.20
65038;DHT22;51605;47.040;15.294;2023-10-19T14:57:44;22.80;50.20
65038;DHT22;51605;47.040;15.294;2023-10-19T15:00:18;22.80;50.20
65038;DHT22;51605;47.040;15.294;2023-10-19T15:02:47;22.80;50.20
65038;DHT22;51605;47.040;15.294;2023-10-19T15:05:14;22.80;51.10
65038;DHT22;51605;47.040;15.294;2023-10-19T15:07:42;22.80;50.20
65038;DHT22;51605;47.040;15.294;2023-10-19T15:10:10;22.80;50.20
65038;DHT22;51605;47.040;15.294;2023-10-19T15:12:39;22.80;50.40
65038;DHT22;51605;47.040;15.294;2023-10-19T15:15:09;22.80;50.20
65038;DHT22;51605;47.040;15.294;2023-10-19T15:17:38;22.80;50.20
65038;DHT22;51605;47.040;15.294;2023-10-19T15:20:08;22.80;50.20
65038;DHT22;51605;47.040;15.294;2023-10-19T15:22:41;22.80;50.20
65038;DHT22;51605;47.040;15.294;2023-10-19T15:25:07;22.80;50.20
65038;DHT22;51605;47.040;15.294;2023-10-19T15:27:34;22.80;50.20
65038;DHT22;51605;47.040;15.294;2023-10-19T15:30:00;22.80;50.20
65038;DHT22;51605;47.040;15.294;2023-10-19T15:32:25;22.80;50.20
65038;DHT22;51605;47.040;15.294;2023-10-19T15:34:51;22.80;50.20
65038;DHT22;51605;47.040;15.294;2023-10-19T15:37:18;22.80;50.30